Sheridan, WY

9:19 AM MST on December 29, 2014 (GMT -0700)
Sheridan County | Change Station
CLOSE
Current Station
Airport
Location: Sheridan,
Elevation: 3967 ft
Nearby Weather Stations
Active Advisory: Winter Weather Statement Active Notice: Local Storm Report

Elev 3967 ft 44.76 °N, 106.97 °W | Updated 6 minutes ago

Snow
Snow
4 °F
Feels Like -14 °F
N
14
Wind Variable Wind from WNW

Today
High -- | Low -- °F
--% Chance of Precip.
Yesterday
High -- | Low -- °F
Precip. -- in
7:45 AM 4:35 PM
First Quarter, 60% visible
Pressure 30.48 in
Visibility 2.0 miles
Clouds Mostly Cloudy 3800 ft
Mostly Cloudy 4600 ft
Overcast 5500 ft
Windchill -14 °F
Dew Point -1 °F
Humidity 80%
Rainfall 0.04 in
Snow Depth Not available.
UV 0 out of 12
Pollen .10 out of 12
Air Quality Not available.
Flu Activity Not available.
SPECI KSHR 291613Z AUTO 29012KT 2SM -SN BKN038 BKN046 OVC055 M16/M18 A3048 RMK AO2 SNB05 P0000 T11561183

More Conditions Fewer Conditions

Pressure 30.48 in
Visibility 2.0 miles
Clouds Mostly Cloudy 3800 ft
Mostly Cloudy 4600 ft
Overcast 5500 ft
Windchill -14 °F
Dew Point -1 °F
Humidity 80%
Rainfall 0.04 in
Snow Depth Not available.
UV 0 out of 12
Pollen .10 out of 12
Air Quality Not available.
Flu Activity Not available.
SPECI KSHR 291613Z AUTO 29012KT 2SM -SN BKN038 BKN046 OVC055 M16/M18 A3048 RMK AO2 SNB05 P0000 T11561183

More Conditions Fewer Conditions

10-Day Weather Forecast

Almanac

Astronomy

Dec. 29, 2014 Rise Set
Actual Time
Civil Twilight
Nautical Twilight
Astronomical Twilight
Moon
Length of Visible Light
Length of Day
Tomorrow will be .
, % of the Moon is Illuminated

Today's Extremes

State Highs State Lows

Community

WunderPhotos

Upload Photos

1,781,627 photos uploaded!

WunderBlogs® & News

Nearby

Air Quality

  Air Quality AQ Index Pollutant
Not available.

Snow Depth

Station Depth Elevation

Earthquake Activity

City Distance Mag. Time & Date
Minimum magnitude displayed is 2.5.

Coastal Water Temperatures

Place Temperature

Nearby Weather Stations